sensor_id;sensor_type;location;lat;lon;timestamp;P1;durP1;ratioP1;P2;durP2;ratioP2
735;SDS011;352;48.626;9.238;2023-08-20T04:43:22;9.87;;;8.87;;
735;SDS011;352;48.626;9.238;2023-08-20T04:45:59;10.67;;;9.60;;
735;SDS011;352;48.626;9.238;2023-08-20T04:48:33;11.37;;;10.30;;
735;SDS011;352;48.626;9.238;2023-08-20T04:54:17;10.93;;;9.83;;
735;SDS011;352;48.626;9.238;2023-08-20T04:56:59;12.37;;;9.97;;
735;SDS011;352;48.626;9.238;2023-08-20T05:03:05;13.00;;;11.87;;
735;SDS011;352;48.626;9.238;2023-08-20T05:09:21;11.97;;;10.67;;
735;SDS011;352;48.626;9.238;2023-08-20T05:12:28;11.43;;;10.37;;
735;SDS011;352;48.626;9.238;2023-08-20T05:18:41;11.50;;;10.50;;
735;SDS011;352;48.626;9.238;2023-08-20T05:21:32;12.07;;;10.27;;
735;SDS011;352;48.626;9.238;2023-08-20T05:24:14;11.30;;;10.10;;
735;SDS011;352;48.626;9.238;2023-08-20T05:27:09;10.70;;;9.70;;
735;SDS011;352;48.626;9.238;2023-08-20T05:29:39;9.73;;;8.90;;
735;SDS011;352;48.626;9.238;2023-08-20T05:32:11;10.93;;;9.97;;
735;SDS011;352;48.626;9.238;2023-08-20T05:34:45;10.93;;;9.50;;
735;SDS011;352;48.626;9.238;2023-08-20T05:37:30;10.13;;;9.23;;
735;SDS011;352;48.626;9.238;2023-08-20T05:46:57;11.30;;;9.97;;
735;SDS011;352;48.626;9.238;2023-08-20T05:49:42;16.37;;;11.97;;
735;SDS011;352;48.626;9.238;2023-08-20T05:52:19;11.67;;;10.70;;
735;SDS011;352;48.626;9.238;2023-08-20T05:55:08;19.10;;;12.17;;
735;SDS011;352;48.626;9.238;2023-08-20T05:57:41;10.47;;;9.60;;
735;SDS011;352;48.626;9.238;2023-08-20T06:00:11;11.70;;;10.67;;
735;SDS011;352;48.626;9.238;2023-08-20T06:02:38;11.53;;;10.37;;
735;SDS011;352;48.626;9.238;2023-08-20T06:05:07;11.27;;;10.20;;
735;SDS011;352;48.626;9.238;2023-08-20T06:07:57;11.73;;;10.67;;
735;SDS011;352;48.626;9.238;2023-08-20T06:10:42;12.00;;;11.00;;
735;SDS011;352;48.626;9.238;2023-08-20T06:16:21;13.73;;;12.10;;
735;SDS011;352;48.626;9.238;2023-08-20T06:21:56;11.17;;;9.87;;
735;SDS011;352;48.626;9.238;2023-08-20T06:24:28;11.50;;;10.40;;
735;SDS011;352;48.626;9.238;2023-08-20T06:26:58;12.27;;;11.10;;
735;SDS011;352;48.626;9.238;2023-08-20T06:29:25;12.63;;;10.47;;
735;SDS011;352;48.626;9.238;2023-08-20T06:31:52;11.60;;;10.50;;
735;SDS011;352;48.626;9.238;2023-08-20T06:34:19;12.43;;;11.33;;
735;SDS011;352;48.626;9.238;2023-08-20T06:36:47;14.27;;;12.23;;
735;SDS011;352;48.626;9.238;2023-08-20T06:39:15;13.27;;;11.87;;
735;SDS011;352;48.626;9.238;2023-08-20T06:41:43;15.90;;;12.40;;
735;SDS011;352;48.626;9.238;2023-08-20T06:44:10;12.73;;;11.60;;
735;SDS011;352;48.626;9.238;2023-08-20T06:46:38;14.40;;;11.10;;
735;SDS011;352;48.626;9.238;2023-08-20T06:49:05;12.13;;;11.03;;
735;SDS011;352;48.626;9.238;2023-08-20T06:51:32;12.13;;;10.83;;
735;SDS011;352;48.626;9.238;2023-08-20T06:53:59;13.23;;;11.90;;
735;SDS011;352;48.626;9.238;2023-08-20T06:56:27;13.70;;;12.40;;
735;SDS011;352;48.626;9.238;2023-08-20T06:58:54;13.27;;;11.73;;
735;SDS011;352;48.626;9.238;2023-08-20T07:01:21;12.50;;;11.20;;
735;SDS011;352;48.626;9.238;2023-08-20T07:03:50;11.73;;;10.53;;
735;SDS011;352;48.626;9.238;2023-08-20T07:06:38;12.77;;;11.50;;
735;SDS011;352;48.626;9.238;2023-08-20T07:09:04;18.37;;;16.33;;
735;SDS011;352;48.626;9.238;2023-08-20T07:11:33;14.20;;;12.20;;
735;SDS011;352;48.626;9.238;2023-08-20T07:14:00;18.60;;;13.27;;
735;SDS011;352;48.626;9.238;2023-08-20T07:16:27;13.10;;;10.20;;
735;SDS011;352;48.626;9.238;2023-08-20T07:18:54;12.77;;;11.53;;
735;SDS011;352;48.626;9.238;2023-08-20T07:21:21;12.20;;;11.10;;
735;SDS011;352;48.626;9.238;2023-08-20T07:23:47;12.40;;;11.30;;
735;SDS011;352;48.626;9.238;2023-08-20T07:26:14;12.90;;;11.70;;
735;SDS011;352;48.626;9.238;2023-08-20T07:28:43;13.00;;;11.70;;
735;SDS011;352;48.626;9.238;2023-08-20T07:31:25;12.57;;;11.40;;
735;SDS011;352;48.626;9.238;2023-08-20T07:33:53;13.70;;;12.40;;
735;SDS011;352;48.626;9.238;2023-08-20T07:36:21;14.27;;;12.87;;
735;SDS011;352;48.626;9.238;2023-08-20T07:38:49;13.37;;;11.70;;
735;SDS011;352;48.626;9.238;2023-08-20T07:41:16;13.73;;;10.93;;
735;SDS011;352;48.626;9.238;2023-08-20T07:43:46;14.43;;;12.97;;
735;SDS011;352;48.626;9.238;2023-08-20T07:46:14;13.57;;;12.27;;
735;SDS011;352;48.626;9.238;2023-08-20T07:48:41;12.63;;;11.33;;
735;SDS011;352;48.626;9.238;2023-08-20T07:51:09;11.33;;;10.20;;
735;SDS011;352;48.626;9.238;2023-08-20T07:53:36;11.47;;;10.37;;
735;SDS011;352;48.626;9.238;2023-08-20T07:56:03;12.30;;;11.27;;
735;SDS011;352;48.626;9.238;2023-08-20T07:58:30;12.10;;;10.93;;
735;SDS011;352;48.626;9.238;2023-08-20T08:00:59;13.13;;;11.83;;
735;SDS011;352;48.626;9.238;2023-08-20T08:03:25;11.93;;;11.03;;
735;SDS011;352;48.626;9.238;2023-08-20T08:05:52;12.77;;;11.33;;
735;SDS011;352;48.626;9.238;2023-08-20T08:08:20;12.47;;;11.30;;
735;SDS011;352;48.626;9.238;2023-08-20T08:10:47;14.63;;;11.83;;
735;SDS011;352;48.626;9.238;2023-08-20T08:13:15;12.53;;;11.27;;
735;SDS011;352;48.626;9.238;2023-08-20T08:15:44;12.80;;;11.70;;
735;SDS011;352;48.626;9.238;2023-08-20T08:18:12;12.90;;;11.53;;
735;SDS011;352;48.626;9.238;2023-08-20T08:20:39;15.93;;;13.23;;
735;SDS011;352;48.626;9.238;2023-08-20T08:23:05;12.67;;;11.57;;
735;SDS011;352;48.626;9.238;2023-08-20T08:25:32;13.50;;;12.40;;
735;SDS011;352;48.626;9.238;2023-08-20T08:27:59;16.13;;;12.43;;
735;SDS011;352;48.626;9.238;2023-08-20T08:30:26;13.40;;;12.20;;
735;SDS011;352;48.626;9.238;2023-08-20T08:32:54;13.30;;;12.10;;
735;SDS011;352;48.626;9.238;2023-08-20T08:35:23;12.60;;;11.40;;
735;SDS011;352;48.626;9.238;2023-08-20T08:37:49;24.23;;;16.00;;
735;SDS011;352;48.626;9.238;2023-08-20T08:40:16;12.33;;;11.13;;
735;SDS011;352;48.626;9.238;2023-08-20T08:42:44;13.63;;;12.37;;
735;SDS011;352;48.626;9.238;2023-08-20T08:45:14;14.57;;;13.07;;
735;SDS011;352;48.626;9.238;2023-08-20T08:47:44;18.47;;;14.27;;
735;SDS011;352;48.626;9.238;2023-08-20T08:50:11;15.07;;;13.77;;
735;SDS011;352;48.626;9.238;2023-08-20T08:52:40;17.87;;;16.33;;
735;SDS011;352;48.626;9.238;2023-08-20T08:55:08;16.30;;;14.90;;
735;SDS011;352;48.626;9.238;2023-08-20T08:57:35;20.37;;;17.97;;
735;SDS011;352;48.626;9.238;2023-08-20T09:00:02;42.23;;;38.73;;
735;SDS011;352;48.626;9.238;2023-08-20T09:02:29;30.70;;;29.00;;
735;SDS011;352;48.626;9.238;2023-08-20T09:04:56;35.17;;;33.03;;
735;SDS011;352;48.626;9.238;2023-08-20T09:07:24;41.33;;;36.63;;
735;SDS011;352;48.626;9.238;2023-08-20T09:09:56;44.40;;;41.80;;
735;SDS011;352;48.626;9.238;2023-08-20T09:12:24;26.53;;;24.40;;
735;SDS011;352;48.626;9.238;2023-08-20T09:14:52;19.87;;;18.33;;
735;SDS011;352;48.626;9.238;2023-08-20T09:17:19;17.20;;;15.23;;
735;SDS011;352;48.626;9.238;2023-08-20T09:19:47;22.83;;;20.73;;
735;SDS011;352;48.626;9.238;2023-08-20T09:22:14;95.43;;;85.87;;
735;SDS011;352;48.626;9.238;2023-08-20T09:24:44;28.00;;;24.37;;
735;SDS011;352;48.626;9.238;2023-08-20T09:27:13;32.00;;;26.83;;
735;SDS011;352;48.626;9.238;2023-08-20T09:29:43;21.10;;;19.47;;
735;SDS011;352;48.626;9.238;2023-08-20T09:32:13;20.43;;;18.03;;
735;SDS011;352;48.626;9.238;2023-08-20T09:34:41;15.80;;;14.27;;
735;SDS011;352;48.626;9.238;2023-08-20T09:37:08;24.30;;;18.40;;
735;SDS011;352;48.626;9.238;2023-08-20T09:39:36;19.50;;;17.87;;
735;SDS011;352;48.626;9.238;2023-08-20T09:42:03;29.27;;;27.53;;
735;SDS011;352;48.626;9.238;2023-08-20T09:44:35;25.63;;;23.77;;
735;SDS011;352;48.626;9.238;2023-08-20T09:47:06;34.07;;;32.00;;
735;SDS011;352;48.626;9.238;2023-08-20T09:49:36;30.10;;;27.37;;
735;SDS011;352;48.626;9.238;2023-08-20T09:52:04;31.37;;;28.90;;
735;SDS011;352;48.626;9.238;2023-08-20T09:54:34;49.67;;;46.97;;
735;SDS011;352;48.626;9.238;2023-08-20T09:57:12;48.10;;;44.07;;
735;SDS011;352;48.626;9.238;2023-08-20T09:59:48;75.53;;;72.20;;
735;SDS011;352;48.626;9.238;2023-08-20T10:02:16;55.13;;;52.77;;
735;SDS011;352;48.626;9.238;2023-08-20T10:04:43;42.60;;;40.43;;
735;SDS011;352;48.626;9.238;2023-08-20T10:07:11;51.33;;;48.43;;
735;SDS011;352;48.626;9.238;2023-08-20T10:09:38;83.70;;;79.77;;
735;SDS011;352;48.626;9.238;2023-08-20T10:12:05;77.27;;;74.37;;
735;SDS011;352;48.626;9.238;2023-08-20T10:14:33;106.00;;;102.30;;
735;SDS011;352;48.626;9.238;2023-08-20T10:17:06;115.67;;;111.33;;
735;SDS011;352;48.626;9.238;2023-08-20T10:19:33;113.77;;;109.37;;
735;SDS011;352;48.626;9.238;2023-08-20T10:22:01;122.93;;;118.37;;
735;SDS011;352;48.626;9.238;2023-08-20T10:24:29;102.93;;;99.47;;
735;SDS011;352;48.626;9.238;2023-08-20T10:27:09;106.90;;;102.43;;
735;SDS011;352;48.626;9.238;2023-08-20T10:29:38;120.17;;;116.10;;
735;SDS011;352;48.626;9.238;2023-08-20T10:32:12;139.13;;;134.27;;
735;SDS011;352;48.626;9.238;2023-08-20T10:34:42;137.97;;;132.90;;
735;SDS011;352;48.626;9.238;2023-08-20T10:37:13;100.97;;;95.03;;
735;SDS011;352;48.626;9.238;2023-08-20T10:39:41;145.13;;;140.10;;
735;SDS011;352;48.626;9.238;2023-08-20T10:42:09;169.17;;;163.17;;
735;SDS011;352;48.626;9.238;2023-08-20T10:45:01;139.50;;;134.43;;
735;SDS011;352;48.626;9.238;2023-08-20T10:47:37;144.63;;;139.57;;
735;SDS011;352;48.626;9.238;2023-08-20T10:50:08;161.17;;;155.47;;
735;SDS011;352;48.626;9.238;2023-08-20T10:52:38;176.53;;;170.40;;
735;SDS011;352;48.626;9.238;2023-08-20T10:55:06;180.57;;;174.40;;
735;SDS011;352;48.626;9.238;2023-08-20T10:57:34;242.67;;;233.60;;
735;SDS011;352;48.626;9.238;2023-08-20T11:00:02;239.43;;;230.83;;
735;SDS011;352;48.626;9.238;2023-08-20T11:02:37;193.83;;;186.60;;
735;SDS011;352;48.626;9.238;2023-08-20T11:05:09;182.93;;;176.30;;
735;SDS011;352;48.626;9.238;2023-08-20T11:07:42;148.67;;;143.57;;
735;SDS011;352;48.626;9.238;2023-08-20T11:10:12;145.30;;;140.27;;
735;SDS011;352;48.626;9.238;2023-08-20T11:12:40;141.70;;;136.83;;
735;SDS011;352;48.626;9.238;2023-08-20T11:15:08;190.47;;;183.33;;
735;SDS011;352;48.626;9.238;2023-08-20T11:17:41;158.57;;;152.70;;
735;SDS011;352;48.626;9.238;2023-08-20T11:20:08;145.00;;;140.30;;
735;SDS011;352;48.626;9.238;2023-08-20T11:22:37;154.87;;;149.60;;
735;SDS011;352;48.626;9.238;2023-08-20T11:25:05;186.50;;;180.10;;
735;SDS011;352;48.626;9.238;2023-08-20T11:27:32;133.80;;;129.27;;
735;SDS011;352;48.626;9.238;2023-08-20T11:30:00;123.10;;;118.83;;
735;SDS011;352;48.626;9.238;2023-08-20T11:32:29;111.37;;;107.30;;
735;SDS011;352;48.626;9.238;2023-08-20T11:34:58;80.43;;;76.87;;
735;SDS011;352;48.626;9.238;2023-08-20T11:37:25;78.00;;;75.13;;
735;SDS011;352;48.626;9.238;2023-08-20T11:39:53;71.60;;;68.70;;
735;SDS011;352;48.626;9.238;2023-08-20T11:42:20;45.00;;;42.90;;
735;SDS011;352;48.626;9.238;2023-08-20T11:44:47;57.40;;;54.97;;
735;SDS011;352;48.626;9.238;2023-08-20T11:47:15;31.17;;;28.63;;
735;SDS011;352;48.626;9.238;2023-08-20T11:49:42;37.97;;;35.83;;
735;SDS011;352;48.626;9.238;2023-08-20T11:52:11;47.03;;;44.60;;
735;SDS011;352;48.626;9.238;2023-08-20T11:54:38;39.60;;;37.43;;
735;SDS011;352;48.626;9.238;2023-08-20T11:57:06;26.80;;;24.93;;
735;SDS011;352;48.626;9.238;2023-08-20T11:59:33;38.07;;;34.23;;
735;SDS011;352;48.626;9.238;2023-08-20T12:02:01;23.97;;;22.13;;
735;SDS011;352;48.626;9.238;2023-08-20T12:04:29;35.33;;;31.60;;
735;SDS011;352;48.626;9.238;2023-08-20T12:07:03;32.70;;;30.13;;
735;SDS011;352;48.626;9.238;2023-08-20T12:09:32;20.93;;;19.07;;
735;SDS011;352;48.626;9.238;2023-08-20T12:11:59;22.47;;;21.00;;
735;SDS011;352;48.626;9.238;2023-08-20T12:14:27;14.97;;;13.80;;
735;SDS011;352;48.626;9.238;2023-08-20T12:16:54;14.00;;;12.77;;
735;SDS011;352;48.626;9.238;2023-08-20T12:19:21;15.80;;;14.03;;
735;SDS011;352;48.626;9.238;2023-08-20T12:21:48;17.07;;;14.97;;
735;SDS011;352;48.626;9.238;2023-08-20T12:24:15;13.27;;;12.03;;
735;SDS011;352;48.626;9.238;2023-08-20T12:26:45;14.63;;;12.53;;
735;SDS011;352;48.626;9.238;2023-08-20T12:29:12;17.57;;;15.60;;
735;SDS011;352;48.626;9.238;2023-08-20T12:31:39;13.33;;;12.13;;
735;SDS011;352;48.626;9.238;2023-08-20T12:34:06;12.37;;;11.20;;
735;SDS011;352;48.626;9.238;2023-08-20T12:36:34;16.90;;;11.57;;
735;SDS011;352;48.626;9.238;2023-08-20T12:39:01;11.40;;;10.23;;
735;SDS011;352;48.626;9.238;2023-08-20T12:41:29;13.17;;;10.47;;
735;SDS011;352;48.626;9.238;2023-08-20T12:43:58;10.43;;;9.50;;
735;SDS011;352;48.626;9.238;2023-08-20T12:46:24;12.87;;;10.93;;
735;SDS011;352;48.626;9.238;2023-08-20T12:48:51;13.87;;;10.10;;
735;SDS011;352;48.626;9.238;2023-08-20T12:51:18;10.50;;;9.30;;
735;SDS011;352;48.626;9.238;2023-08-20T12:53:46;14.73;;;9.97;;
735;SDS011;352;48.626;9.238;2023-08-20T12:56:13;12.13;;;10.00;;
735;SDS011;352;48.626;9.238;2023-08-20T12:58:41;16.97;;;11.43;;
735;SDS011;352;48.626;9.238;2023-08-20T13:01:09;11.20;;;10.00;;
735;SDS011;352;48.626;9.238;2023-08-20T13:03:36;14.00;;;10.60;;
735;SDS011;352;48.626;9.238;2023-08-20T13:06:03;12.70;;;9.50;;
735;SDS011;352;48.626;9.238;2023-08-20T13:08:33;12.30;;;10.30;;
735;SDS011;352;48.626;9.238;2023-08-20T13:11:00;12.00;;;10.10;;
735;SDS011;352;48.626;9.238;2023-08-20T13:13:29;12.50;;;9.77;;
735;SDS011;352;48.626;9.238;2023-08-20T13:15:59;14.73;;;9.37;;
735;SDS011;352;48.626;9.238;2023-08-20T13:18:28;11.27;;;9.40;;
735;SDS011;352;48.626;9.238;2023-08-20T13:20:55;10.27;;;9.33;;
735;SDS011;352;48.626;9.238;2023-08-20T13:23:22;18.70;;;10.03;;
735;SDS011;352;48.626;9.238;2023-08-20T13:25:49;18.20;;;9.73;;
735;SDS011;352;48.626;9.238;2023-08-20T13:28:16;11.60;;;9.80;;
735;SDS011;352;48.626;9.238;2023-08-20T13:30:44;11.37;;;9.40;;
735;SDS011;352;48.626;9.238;2023-08-20T13:33:11;11.63;;;9.80;;
735;SDS011;352;48.626;9.238;2023-08-20T13:35:39;12.93;;;9.80;;
735;SDS011;352;48.626;9.238;2023-08-20T13:38:06;12.40;;;9.57;;
735;SDS011;352;48.626;9.238;2023-08-20T13:40:33;11.00;;;9.50;;
735;SDS011;352;48.626;9.238;2023-08-20T13:43:00;10.60;;;9.50;;
735;SDS011;352;48.626;9.238;2023-08-20T13:45:27;14.33;;;10.00;;
735;SDS011;352;48.626;9.238;2023-08-20T13:47:54;11.47;;;9.63;;
735;SDS011;352;48.626;9.238;2023-08-20T13:50:21;11.00;;;9.80;;
735;SDS011;352;48.626;9.238;2023-08-20T13:52:49;10.50;;;9.20;;
735;SDS011;352;48.626;9.238;2023-08-20T13:55:16;11.33;;;9.80;;
735;SDS011;352;48.626;9.238;2023-08-20T13:57:43;13.77;;;9.90;;
735;SDS011;352;48.626;9.238;2023-08-20T14:00:11;13.63;;;9.83;;
735;SDS011;352;48.626;9.238;2023-08-20T14:02:38;10.77;;;9.67;;
735;SDS011;352;48.626;9.238;2023-08-20T14:05:05;10.90;;;9.60;;
735;SDS011;352;48.626;9.238;2023-08-20T14:07:33;11.33;;;10.33;;
735;SDS011;352;48.626;9.238;2023-08-20T14:10:01;11.90;;;10.70;;
735;SDS011;352;48.626;9.238;2023-08-20T14:12:29;10.97;;;9.87;;
735;SDS011;352;48.626;9.238;2023-08-20T14:14:55;11.97;;;10.27;;
735;SDS011;352;48.626;9.238;2023-08-20T14:17:22;14.73;;;11.30;;
735;SDS011;352;48.626;9.238;2023-08-20T14:19:50;12.73;;;10.30;;
735;SDS011;352;48.626;9.238;2023-08-20T14:22:17;10.87;;;9.73;;
735;SDS011;352;48.626;9.238;2023-08-20T14:24:44;10.37;;;9.57;;
735;SDS011;352;48.626;9.238;2023-08-20T14:27:13;10.67;;;9.57;;
735;SDS011;352;48.626;9.238;2023-08-20T14:29:40;11.67;;;10.17;;
735;SDS011;352;48.626;9.238;2023-08-20T14:32:08;14.00;;;10.60;;
735;SDS011;352;48.626;9.238;2023-08-20T14:34:34;9.77;;;8.50;;
735;SDS011;352;48.626;9.238;2023-08-20T14:37:02;11.77;;;9.67;;
735;SDS011;352;48.626;9.238;2023-08-20T14:39:28;11.07;;;9.97;;
735;SDS011;352;48.626;9.238;2023-08-20T14:41:56;12.20;;;9.07;;
735;SDS011;352;48.626;9.238;2023-08-20T14:44:24;10.83;;;9.73;;
735;SDS011;352;48.626;9.238;2023-08-20T14:46:51;13.80;;;10.20;;
735;SDS011;352;48.626;9.238;2023-08-20T14:49:18;9.80;;;8.90;;
735;SDS011;352;48.626;9.238;2023-08-20T14:51:45;13.93;;;11.23;;
735;SDS011;352;48.626;9.238;2023-08-20T14:54:12;12.37;;;9.07;;
735;SDS011;352;48.626;9.238;2023-08-20T14:56:39;9.93;;;8.93;;
735;SDS011;352;48.626;9.238;2023-08-20T14:59:06;16.63;;;9.50;;
735;SDS011;352;48.626;9.238;2023-08-20T15:01:36;13.67;;;10.40;;
735;SDS011;352;48.626;9.238;2023-08-20T15:04:02;11.53;;;10.17;;
735;SDS011;352;48.626;9.238;2023-08-20T15:06:29;10.33;;;9.30;;
735;SDS011;352;48.626;9.238;2023-08-20T15:08:56;11.70;;;9.33;;
735;SDS011;352;48.626;9.238;2023-08-20T15:11:23;10.37;;;9.27;;
735;SDS011;352;48.626;9.238;2023-08-20T15:13:50;10.80;;;9.70;;
735;SDS011;352;48.626;9.238;2023-08-20T15:16:17;17.80;;;12.73;;
735;SDS011;352;48.626;9.238;2023-08-20T15:18:46;9.83;;;8.90;;
735;SDS011;352;48.626;9.238;2023-08-20T15:21:16;9.63;;;8.83;;
735;SDS011;352;48.626;9.238;2023-08-20T15:23:43;11.17;;;9.53;;
735;SDS011;352;48.626;9.238;2023-08-20T15:26:10;11.67;;;9.67;;
735;SDS011;352;48.626;9.238;2023-08-20T15:28:37;8.83;;;8.10;;
735;SDS011;352;48.626;9.238;2023-08-20T15:31:05;10.93;;;9.57;;
735;SDS011;352;48.626;9.238;2023-08-20T15:33:32;10.87;;;9.53;;
735;SDS011;352;48.626;9.238;2023-08-20T15:36:01;10.73;;;9.73;;
735;SDS011;352;48.626;9.238;2023-08-20T15:38:27;9.40;;;8.50;;
735;SDS011;352;48.626;9.238;2023-08-20T15:40:55;10.20;;;9.20;;
735;SDS011;352;48.626;9.238;2023-08-20T15:43:23;11.13;;;10.03;;
735;SDS011;352;48.626;9.238;2023-08-20T15:45:53;9.57;;;8.70;;
735;SDS011;352;48.626;9.238;2023-08-20T15:48:23;10.50;;;9.50;;
735;SDS011;352;48.626;9.238;2023-08-20T15:50:53;10.20;;;9.20;;
735;SDS011;352;48.626;9.238;2023-08-20T15:53:25;10.57;;;9.27;;
735;SDS011;352;48.626;9.238;2023-08-20T15:55:52;11.10;;;10.07;;
735;SDS011;352;48.626;9.238;2023-08-20T15:58:19;9.83;;;8.83;;
735;SDS011;352;48.626;9.238;2023-08-20T16:00:55;8.80;;;7.90;;
735;SDS011;352;48.626;9.238;2023-08-20T16:03:24;9.20;;;8.43;;
735;SDS011;352;48.626;9.238;2023-08-20T16:05:51;10.40;;;9.40;;
735;SDS011;352;48.626;9.238;2023-08-20T16:08:21;9.87;;;9.07;;
735;SDS011;352;48.626;9.238;2023-08-20T16:10:55;10.03;;;9.13;;
735;SDS011;352;48.626;9.238;2023-08-20T16:34:35;9.73;;;8.00;;
735;SDS011;352;48.626;9.238;2023-08-20T16:37:02;9.30;;;8.40;;
735;SDS011;352;48.626;9.238;2023-08-20T16:39:29;9.10;;;8.20;;
735;SDS011;352;48.626;9.238;2023-08-20T16:41:56;8.40;;;7.70;;
735;SDS011;352;48.626;9.238;2023-08-20T16:44:40;13.40;;;9.33;;
735;SDS011;352;48.626;9.238;2023-08-20T16:47:22;18.73;;;11.07;;
735;SDS011;352;48.626;9.238;2023-08-20T16:50:07;9.37;;;8.47;;
735;SDS011;352;48.626;9.238;2023-08-20T16:55:35;11.47;;;8.13;;
735;SDS011;352;48.626;9.238;2023-08-20T16:58:04;10.20;;;7.63;;
735;SDS011;352;48.626;9.238;2023-08-20T17:04:48;21.97;;;11.67;;
735;SDS011;352;48.626;9.238;2023-08-20T17:15:08;14.43;;;9.80;;
735;SDS011;352;48.626;9.238;2023-08-20T17:17:35;11.00;;;9.20;;
735;SDS011;352;48.626;9.238;2023-08-20T17:20:02;8.30;;;7.53;;
735;SDS011;352;48.626;9.238;2023-08-20T17:22:32;8.20;;;7.00;;
735;SDS011;352;48.626;9.238;2023-08-20T17:24:59;8.90;;;7.73;;
735;SDS011;352;48.626;9.238;2023-08-20T17:27:26;12.33;;;9.20;;
735;SDS011;352;48.626;9.238;2023-08-20T17:29:53;9.83;;;7.20;;
735;SDS011;352;48.626;9.238;2023-08-20T17:32:21;227.53;;;192.00;;
735;SDS011;352;48.626;9.238;2023-08-20T17:34:48;10.90;;;9.03;;
735;SDS011;352;48.626;9.238;2023-08-20T17:37:15;11.83;;;8.07;;
735;SDS011;352;48.626;9.238;2023-08-20T17:39:42;11.50;;;9.33;;
735;SDS011;352;48.626;9.238;2023-08-20T17:42:09;10.60;;;8.23;;
735;SDS011;352;48.626;9.238;2023-08-20T17:44:38;13.87;;;8.63;;
735;SDS011;352;48.626;9.238;2023-08-20T17:47:05;10.27;;;8.97;;
735;SDS011;352;48.626;9.238;2023-08-20T17:49:33;15.97;;;14.30;;
735;SDS011;352;48.626;9.238;2023-08-20T17:52:00;9.53;;;8.23;;
735;SDS011;352;48.626;9.238;2023-08-20T17:54:27;10.03;;;8.90;;
735;SDS011;352;48.626;9.238;2023-08-20T17:56:54;16.43;;;9.60;;
735;SDS011;352;48.626;9.238;2023-08-20T17:59:21;12.03;;;8.47;;
735;SDS011;352;48.626;9.238;2023-08-20T18:01:48;10.50;;;8.47;;
735;SDS011;352;48.626;9.238;2023-08-20T18:04:15;10.77;;;8.63;;
735;SDS011;352;48.626;9.238;2023-08-20T18:06:44;11.53;;;7.87;;
735;SDS011;352;48.626;9.238;2023-08-20T18:09:11;8.17;;;6.33;;
735;SDS011;352;48.626;9.238;2023-08-20T18:11:38;9.30;;;7.33;;
735;SDS011;352;48.626;9.238;2023-08-20T18:14:05;7.03;;;6.33;;
735;SDS011;352;48.626;9.238;2023-08-20T18:16:32;7.63;;;6.77;;
735;SDS011;352;48.626;9.238;2023-08-20T18:18:59;6.80;;;6.10;;
735;SDS011;352;48.626;9.238;2023-08-20T18:21:26;9.43;;;7.50;;
735;SDS011;352;48.626;9.238;2023-08-20T18:23:54;7.33;;;6.33;;
735;SDS011;352;48.626;9.238;2023-08-20T18:26:21;10.43;;;6.50;;
735;SDS011;352;48.626;9.238;2023-08-20T18:28:48;7.77;;;6.50;;
735;SDS011;352;48.626;9.238;2023-08-20T18:31:15;7.63;;;6.87;;
735;SDS011;352;48.626;9.238;2023-08-20T18:33:42;8.10;;;7.13;;
735;SDS011;352;48.626;9.238;2023-08-20T18:36:09;11.03;;;6.50;;
735;SDS011;352;48.626;9.238;2023-08-20T18:38:37;7.70;;;6.43;;
735;SDS011;352;48.626;9.238;2023-08-20T18:41:07;8.50;;;6.30;;
735;SDS011;352;48.626;9.238;2023-08-20T18:43:37;7.97;;;7.17;;
735;SDS011;352;48.626;9.238;2023-08-20T18:46:04;8.37;;;6.70;;
735;SDS011;352;48.626;9.238;2023-08-20T18:48:32;9.60;;;6.93;;
735;SDS011;352;48.626;9.238;2023-08-20T18:51:01;7.80;;;7.00;;
735;SDS011;352;48.626;9.238;2023-08-20T18:53:29;7.47;;;6.40;;
735;SDS011;352;48.626;9.238;2023-08-20T18:55:56;6.90;;;5.93;;
735;SDS011;352;48.626;9.238;2023-08-20T18:58:25;6.70;;;6.00;;
735;SDS011;352;48.626;9.238;2023-08-20T19:00:52;6.80;;;6.10;;
735;SDS011;352;48.626;9.238;2023-08-20T19:03:19;7.60;;;6.70;;
735;SDS011;352;48.626;9.238;2023-08-20T19:05:46;8.57;;;6.80;;
735;SDS011;352;48.626;9.238;2023-08-20T19:08:13;8.20;;;6.50;;
735;SDS011;352;48.626;9.238;2023-08-20T19:10:43;8.33;;;6.47;;
735;SDS011;352;48.626;9.238;2023-08-20T19:13:10;7.13;;;6.30;;
735;SDS011;352;48.626;9.238;2023-08-20T19:15:45;7.57;;;6.00;;
735;SDS011;352;48.626;9.238;2023-08-20T19:18:13;9.53;;;6.47;;
735;SDS011;352;48.626;9.238;2023-08-20T19:20:46;6.40;;;5.87;;
735;SDS011;352;48.626;9.238;2023-08-20T19:23:13;6.60;;;6.00;;
735;SDS011;352;48.626;9.238;2023-08-20T19:25:41;6.70;;;6.10;;
735;SDS011;352;48.626;9.238;2023-08-20T19:28:08;8.70;;;7.00;;
735;SDS011;352;48.626;9.238;2023-08-20T19:30:36;8.97;;;6.37;;
735;SDS011;352;48.626;9.238;2023-08-20T19:33:04;6.90;;;5.97;;
735;SDS011;352;48.626;9.238;2023-08-20T19:35:31;9.30;;;7.50;;
735;SDS011;352;48.626;9.238;2023-08-20T19:37:58;8.33;;;6.40;;
735;SDS011;352;48.626;9.238;2023-08-20T19:40:26;7.47;;;6.30;;
735;SDS011;352;48.626;9.238;2023-08-20T19:42:53;7.07;;;6.37;;
735;SDS011;352;48.626;9.238;2023-08-20T19:45:20;12.00;;;7.90;;
735;SDS011;352;48.626;9.238;2023-08-20T19:47:47;6.53;;;5.93;;
735;SDS011;352;48.626;9.238;2023-08-20T19:50:16;6.30;;;5.70;;
735;SDS011;352;48.626;9.238;2023-08-20T19:52:42;9.50;;;6.20;;
735;SDS011;352;48.626;9.238;2023-08-20T19:55:10;7.37;;;6.63;;
735;SDS011;352;48.626;9.238;2023-08-20T19:57:37;9.40;;;6.70;;
735;SDS011;352;48.626;9.238;2023-08-20T20:00:05;9.60;;;6.70;;
735;SDS011;352;48.626;9.238;2023-08-20T20:02:36;10.27;;;7.20;;
735;SDS011;352;48.626;9.238;2023-08-20T20:05:03;7.33;;;6.43;;
735;SDS011;352;48.626;9.238;2023-08-20T20:07:32;8.77;;;5.90;;
735;SDS011;352;48.626;9.238;2023-08-20T20:10:00;7.43;;;6.83;;
735;SDS011;352;48.626;9.238;2023-08-20T20:12:27;8.00;;;7.20;;
735;SDS011;352;48.626;9.238;2023-08-20T20:14:54;6.63;;;6.00;;
735;SDS011;352;48.626;9.238;2023-08-20T20:17:21;9.63;;;7.97;;
735;SDS011;352;48.626;9.238;2023-08-20T20:19:48;7.47;;;6.77;;
735;SDS011;352;48.626;9.238;2023-08-20T20:22:15;7.63;;;7.00;;
735;SDS011;352;48.626;9.238;2023-08-20T20:24:43;9.60;;;7.63;;
735;SDS011;352;48.626;9.238;2023-08-20T20:27:11;8.20;;;7.40;;
735;SDS011;352;48.626;9.238;2023-08-20T20:29:38;8.73;;;7.57;;
735;SDS011;352;48.626;9.238;2023-08-20T20:32:06;7.73;;;6.80;;
735;SDS011;352;48.626;9.238;2023-08-20T20:34:33;8.90;;;7.40;;
735;SDS011;352;48.626;9.238;2023-08-20T20:37:00;9.70;;;7.03;;
735;SDS011;352;48.626;9.238;2023-08-20T20:39:27;8.10;;;7.17;;
735;SDS011;352;48.626;9.238;2023-08-20T20:41:56;8.50;;;7.67;;
735;SDS011;352;48.626;9.238;2023-08-20T20:44:23;7.80;;;6.93;;
735;SDS011;352;48.626;9.238;2023-08-20T20:46:50;9.03;;;7.33;;
735;SDS011;352;48.626;9.238;2023-08-20T20:49:17;8.23;;;7.43;;
735;SDS011;352;48.626;9.238;2023-08-20T20:51:44;8.87;;;7.80;;
735;SDS011;352;48.626;9.238;2023-08-20T20:54:11;9.17;;;8.23;;
735;SDS011;352;48.626;9.238;2023-08-20T20:56:39;8.70;;;7.90;;
735;SDS011;352;48.626;9.238;2023-08-20T20:59:07;10.23;;;8.80;;
735;SDS011;352;48.626;9.238;2023-08-20T21:01:34;10.63;;;8.83;;
735;SDS011;352;48.626;9.238;2023-08-20T21:04:01;9.13;;;8.33;;
735;SDS011;352;48.626;9.238;2023-08-20T21:06:28;9.13;;;8.30;;
735;SDS011;352;48.626;9.238;2023-08-20T21:08:55;9.13;;;8.17;;
735;SDS011;352;48.626;9.238;2023-08-20T21:11:22;9.60;;;8.73;;
735;SDS011;352;48.626;9.238;2023-08-20T21:13:49;8.70;;;7.90;;
735;SDS011;352;48.626;9.238;2023-08-20T21:16:17;10.60;;;8.40;;
735;SDS011;352;48.626;9.238;2023-08-20T21:18:44;10.50;;;8.83;;
735;SDS011;352;48.626;9.238;2023-08-20T21:21:12;8.87;;;8.07;;